sensor_id;sensor_type;location;lat;lon;timestamp;temperature;humidity
2497;DHT22;1259;48.306;14.374;2023-02-26T00:00:42;0.30;99.90
2497;DHT22;1259;48.306;14.374;2023-02-26T00:03:09;0.30;99.90
2497;DHT22;1259;48.306;14.374;2023-02-26T00:05:35;0.30;99.90
2497;DHT22;1259;48.306;14.374;2023-02-26T00:08:02;0.30;99.90
2497;DHT22;1259;48.306;14.374;2023-02-26T00:10:31;0.30;99.90
2497;DHT22;1259;48.306;14.374;2023-02-26T00:12:58;0.30;99.90
2497;DHT22;1259;48.306;14.374;2023-02-26T00:15:25;0.10;99.90
2497;DHT22;1259;48.306;14.374;2023-02-26T00:17:53;0.10;99.90
2497;DHT22;1259;48.306;14.374;2023-02-26T00:20:24;0.10;99.90
2497;DHT22;1259;48.306;14.374;2023-02-26T00:22:51;0.10;99.90
2497;DHT22;1259;48.306;14.374;2023-02-26T00:25:18;-0.20;99.90
2497;DHT22;1259;48.306;14.374;2023-02-26T00:27:46;-0.30;99.90
2497;DHT22;1259;48.306;14.374;2023-02-26T00:30:13;-0.40;99.90
2497;DHT22;1259;48.306;14.374;2023-02-26T00:32:40;-0.50;99.90
2497;DHT22;1259;48.306;14.374;2023-02-26T00:35:08;-0.50;99.90
2497;DHT22;1259;48.306;14.374;2023-02-26T00:37:48;-0.60;99.90
2497;DHT22;1259;48.306;14.374;2023-02-26T00:40:20;-0.70;99.90
2497;DHT22;1259;48.306;14.374;2023-02-26T00:42:49;-0.80;99.90
2497;DHT22;1259;48.306;14.374;2023-02-26T00:45:16;-0.90;99.90
2497;DHT22;1259;48.306;14.374;2023-02-26T00:47:45;-0.90;99.90
2497;DHT22;1259;48.306;14.374;2023-02-26T00:50:14;-1.00;99.90
2497;DHT22;1259;48.306;14.374;2023-02-26T00:52:43;-1.00;99.90
2497;DHT22;1259;48.306;14.374;2023-02-26T00:55:11;-1.10;99.90
2497;DHT22;1259;48.306;14.374;2023-02-26T00:57:38;-1.10;99.90
2497;DHT22;1259;48.306;14.374;2023-02-26T01:00:07;-1.20;99.90
2497;DHT22;1259;48.306;14.374;2023-02-26T01:02:34;-1.30;99.90
2497;DHT22;1259;48.306;14.374;2023-02-26T01:05:01;-1.20;99.90
2497;DHT22;1259;48.306;14.374;2023-02-26T01:07:28;-1.30;99.90
2497;DHT22;1259;48.306;14.374;2023-02-26T01:09:56;-1.30;99.90
2497;DHT22;1259;48.306;14.374;2023-02-26T01:12:23;-1.30;99.90
2497;DHT22;1259;48.306;14.374;2023-02-26T01:14:50;-1.40;99.90
2497;DHT22;1259;48.306;14.374;2023-02-26T01:17:20;-1.50;99.90
2497;DHT22;1259;48.306;14.374;2023-02-26T01:19:49;-1.50;99.90
2497;DHT22;1259;48.306;14.374;2023-02-26T01:22:17;-1.60;99.90
2497;DHT22;1259;48.306;14.374;2023-02-26T01:24:45;-1.50;99.90
2497;DHT22;1259;48.306;14.374;2023-02-26T01:27:13;-1.40;99.90
2497;DHT22;1259;48.306;14.374;2023-02-26T01:29:39;-1.40;99.90
2497;DHT22;1259;48.306;14.374;2023-02-26T01:32:07;-1.40;99.90
2497;DHT22;1259;48.306;14.374;2023-02-26T01:34:38;-1.40;99.90
2497;DHT22;1259;48.306;14.374;2023-02-26T01:37:10;-1.30;99.90
2497;DHT22;1259;48.306;14.374;2023-02-26T01:39:38;-1.30;99.90
2497;DHT22;1259;48.306;14.374;2023-02-26T01:42:07;-1.40;99.90
2497;DHT22;1259;48.306;14.374;2023-02-26T01:44:39;-1.40;99.90
2497;DHT22;1259;48.306;14.374;2023-02-26T01:47:12;-1.40;99.90
2497;DHT22;1259;48.306;14.374;2023-02-26T01:49:43;-1.40;99.90
2497;DHT22;1259;48.306;14.374;2023-02-26T01:54:51;-1.50;99.90
2497;DHT22;1259;48.306;14.374;2023-02-26T01:57:18;-1.50;99.90
2497;DHT22;1259;48.306;14.374;2023-02-26T01:59:47;-1.50;99.90
2497;DHT22;1259;48.306;14.374;2023-02-26T02:02:15;-1.40;99.90
2497;DHT22;1259;48.306;14.374;2023-02-26T02:04:44;-1.40;99.90
2497;DHT22;1259;48.306;14.374;2023-02-26T02:07:11;-1.40;99.90
2497;DHT22;1259;48.306;14.374;2023-02-26T02:09:38;-1.40;99.90
2497;DHT22;1259;48.306;14.374;2023-02-26T02:12:09;-1.50;99.90
2497;DHT22;1259;48.306;14.374;2023-02-26T02:14:43;-1.40;99.90
2497;DHT22;1259;48.306;14.374;2023-02-26T02:17:13;-1.30;99.90
2497;DHT22;1259;48.306;14.374;2023-02-26T02:19:53;-1.40;99.90
2497;DHT22;1259;48.306;14.374;2023-02-26T02:22:32;-1.40;99.90
2497;DHT22;1259;48.306;14.374;2023-02-26T02:25:06;-1.40;99.90
2497;DHT22;1259;48.306;14.374;2023-02-26T02:27:37;-1.40;99.90
2497;DHT22;1259;48.306;14.374;2023-02-26T02:30:08;-1.30;99.90
2497;DHT22;1259;48.306;14.374;2023-02-26T02:32:44;-1.40;99.90
2497;DHT22;1259;48.306;14.374;2023-02-26T02:35:13;-1.30;99.90
2497;DHT22;1259;48.306;14.374;2023-02-26T02:37:42;-1.30;99.90
2497;DHT22;1259;48.306;14.374;2023-02-26T02:40:11;-1.30;99.90
2497;DHT22;1259;48.306;14.374;2023-02-26T02:42:40;-1.30;99.90
2497;DHT22;1259;48.306;14.374;2023-02-26T02:45:09;-1.30;99.90
2497;DHT22;1259;48.306;14.374;2023-02-26T02:47:38;-1.20;99.90
2497;DHT22;1259;48.306;14.374;2023-02-26T02:50:09;-1.00;99.90
2497;DHT22;1259;48.306;14.374;2023-02-26T02:52:40;-1.00;99.90
2497;DHT22;1259;48.306;14.374;2023-02-26T02:55:09;-0.90;99.90
2497;DHT22;1259;48.306;14.374;2023-02-26T02:57:38;-0.80;99.90
2497;DHT22;1259;48.306;14.374;2023-02-26T03:00:07;-0.80;99.90
2497;DHT22;1259;48.306;14.374;2023-02-26T03:02:36;-0.80;99.90
2497;DHT22;1259;48.306;14.374;2023-02-26T03:05:05;-0.70;99.90
2497;DHT22;1259;48.306;14.374;2023-02-26T03:07:34;-0.80;99.90
2497;DHT22;1259;48.306;14.374;2023-02-26T03:10:02;-0.80;99.90
2497;DHT22;1259;48.306;14.374;2023-02-26T03:12:30;-0.80;99.90
2497;DHT22;1259;48.306;14.374;2023-02-26T03:14:57;-0.70;99.90
2497;DHT22;1259;48.306;14.374;2023-02-26T03:17:25;-0.70;99.90
2497;DHT22;1259;48.306;14.374;2023-02-26T03:20:01;-0.60;99.90
2497;DHT22;1259;48.306;14.374;2023-02-26T03:22:31;-0.60;99.90
2497;DHT22;1259;48.306;14.374;2023-02-26T03:25:02;-0.70;99.90
2497;DHT22;1259;48.306;14.374;2023-02-26T03:27:30;-0.70;99.90
2497;DHT22;1259;48.306;14.374;2023-02-26T03:29:59;-0.80;99.90
2497;DHT22;1259;48.306;14.374;2023-02-26T03:32:28;-0.70;99.90
2497;DHT22;1259;48.306;14.374;2023-02-26T03:34:58;-0.60;99.90
2497;DHT22;1259;48.306;14.374;2023-02-26T03:37:26;-0.50;99.90
2497;DHT22;1259;48.306;14.374;2023-02-26T03:39:56;-0.40;99.90
2497;DHT22;1259;48.306;14.374;2023-02-26T03:42:26;-0.40;99.90
2497;DHT22;1259;48.306;14.374;2023-02-26T03:44:54;-0.40;99.90
2497;DHT22;1259;48.306;14.374;2023-02-26T03:47:22;-0.40;99.90
2497;DHT22;1259;48.306;14.374;2023-02-26T03:49:51;-0.60;99.90
2497;DHT22;1259;48.306;14.374;2023-02-26T03:52:20;-0.50;99.90
2497;DHT22;1259;48.306;14.374;2023-02-26T03:54:48;-0.40;99.90
2497;DHT22;1259;48.306;14.374;2023-02-26T03:57:17;-0.30;99.90
2497;DHT22;1259;48.306;14.374;2023-02-26T03:59:45;-0.30;99.90
2497;DHT22;1259;48.306;14.374;2023-02-26T04:02:13;-0.30;99.90
2497;DHT22;1259;48.306;14.374;2023-02-26T04:04:42;-0.30;99.90
2497;DHT22;1259;48.306;14.374;2023-02-26T04:07:11;-0.40;99.90
2497;DHT22;1259;48.306;14.374;2023-02-26T04:09:39;-0.30;99.90
2497;DHT22;1259;48.306;14.374;2023-02-26T04:12:05;-0.40;99.90
2497;DHT22;1259;48.306;14.374;2023-02-26T04:14:32;-0.60;99.90
2497;DHT22;1259;48.306;14.374;2023-02-26T04:17:00;-0.90;99.90
2497;DHT22;1259;48.306;14.374;2023-02-26T04:19:27;-0.90;99.90
2497;DHT22;1259;48.306;14.374;2023-02-26T04:21:54;-1.00;99.90
2497;DHT22;1259;48.306;14.374;2023-02-26T04:24:20;-0.80;99.90
2497;DHT22;1259;48.306;14.374;2023-02-26T04:26:47;-0.60;99.90
2497;DHT22;1259;48.306;14.374;2023-02-26T04:29:14;-0.60;99.90
2497;DHT22;1259;48.306;14.374;2023-02-26T04:31:40;-0.60;99.90
2497;DHT22;1259;48.306;14.374;2023-02-26T04:34:08;-0.60;99.90
2497;DHT22;1259;48.306;14.374;2023-02-26T04:36:35;-0.70;99.90
2497;DHT22;1259;48.306;14.374;2023-02-26T04:39:02;-0.80;99.90
2497;DHT22;1259;48.306;14.374;2023-02-26T04:41:28;-1.00;99.90
2497;DHT22;1259;48.306;14.374;2023-02-26T04:43:55;-1.00;99.90
2497;DHT22;1259;48.306;14.374;2023-02-26T04:46:22;-1.00;99.90
2497;DHT22;1259;48.306;14.374;2023-02-26T04:48:48;-0.90;99.90
2497;DHT22;1259;48.306;14.374;2023-02-26T04:51:17;-0.90;99.90
2497;DHT22;1259;48.306;14.374;2023-02-26T04:53:43;-1.00;99.90
2497;DHT22;1259;48.306;14.374;2023-02-26T04:56:10;-1.10;99.90
2497;DHT22;1259;48.306;14.374;2023-02-26T04:58:37;-1.10;99.90
2497;DHT22;1259;48.306;14.374;2023-02-26T05:01:04;-1.00;99.90
2497;DHT22;1259;48.306;14.374;2023-02-26T05:03:31;-1.10;99.90
2497;DHT22;1259;48.306;14.374;2023-02-26T05:05:57;-1.10;99.90
2497;DHT22;1259;48.306;14.374;2023-02-26T05:08:25;-1.10;99.90
2497;DHT22;1259;48.306;14.374;2023-02-26T05:10:52;-1.20;99.90
2497;DHT22;1259;48.306;14.374;2023-02-26T05:13:19;-1.30;99.90
2497;DHT22;1259;48.306;14.374;2023-02-26T05:15:46;-1.20;99.90
2497;DHT22;1259;48.306;14.374;2023-02-26T05:18:12;-1.20;99.90
2497;DHT22;1259;48.306;14.374;2023-02-26T05:20:39;-1.20;99.90
2497;DHT22;1259;48.306;14.374;2023-02-26T05:23:06;-1.10;99.90
2497;DHT22;1259;48.306;14.374;2023-02-26T05:25:34;-1.10;99.90
2497;DHT22;1259;48.306;14.374;2023-02-26T05:28:00;-1.20;99.90
2497;DHT22;1259;48.306;14.374;2023-02-26T05:30:27;-1.20;99.90
2497;DHT22;1259;48.306;14.374;2023-02-26T05:32:54;-1.20;99.90
2497;DHT22;1259;48.306;14.374;2023-02-26T05:35:20;-1.10;99.90
2497;DHT22;1259;48.306;14.374;2023-02-26T05:37:47;-1.10;99.90
2497;DHT22;1259;48.306;14.374;2023-02-26T05:40:14;-1.10;99.90
2497;DHT22;1259;48.306;14.374;2023-02-26T05:42:42;-1.00;99.90
2497;DHT22;1259;48.306;14.374;2023-02-26T05:45:09;-1.00;99.90
2497;DHT22;1259;48.306;14.374;2023-02-26T05:47:36;-1.00;99.90
2497;DHT22;1259;48.306;14.374;2023-02-26T05:50:03;-1.00;99.90
2497;DHT22;1259;48.306;14.374;2023-02-26T05:52:30;-0.90;99.90
2497;DHT22;1259;48.306;14.374;2023-02-26T05:54:57;-0.90;99.90
2497;DHT22;1259;48.306;14.374;2023-02-26T05:57:23;-0.90;99.90
2497;DHT22;1259;48.306;14.374;2023-02-26T05:59:51;-0.80;99.90
2497;DHT22;1259;48.306;14.374;2023-02-26T06:02:18;-0.80;99.90
2497;DHT22;1259;48.306;14.374;2023-02-26T06:04:45;-0.80;99.90
2497;DHT22;1259;48.306;14.374;2023-02-26T06:07:12;-0.80;99.90
2497;DHT22;1259;48.306;14.374;2023-02-26T06:09:38;-0.70;99.90
2497;DHT22;1259;48.306;14.374;2023-02-26T06:12:05;-0.80;99.90
2497;DHT22;1259;48.306;14.374;2023-02-26T06:14:32;-0.80;99.90
2497;DHT22;1259;48.306;14.374;2023-02-26T06:17:00;-0.70;99.90
2497;DHT22;1259;48.306;14.374;2023-02-26T06:19:27;-0.60;99.90
2497;DHT22;1259;48.306;14.374;2023-02-26T06:21:53;-0.60;99.90
2497;DHT22;1259;48.306;14.374;2023-02-26T06:24:20;-0.60;99.90
2497;DHT22;1259;48.306;14.374;2023-02-26T06:26:47;-0.60;99.90
2497;DHT22;1259;48.306;14.374;2023-02-26T06:29:14;-0.70;99.90
2497;DHT22;1259;48.306;14.374;2023-02-26T06:31:42;-0.80;99.90
2497;DHT22;1259;48.306;14.374;2023-02-26T06:34:10;-0.70;99.90
2497;DHT22;1259;48.306;14.374;2023-02-26T06:36:37;-0.60;99.90
2497;DHT22;1259;48.306;14.374;2023-02-26T06:39:04;-0.60;99.90
2497;DHT22;1259;48.306;14.374;2023-02-26T06:41:30;-0.60;99.90
2497;DHT22;1259;48.306;14.374;2023-02-26T06:43:57;-0.70;99.90
2497;DHT22;1259;48.306;14.374;2023-02-26T06:46:24;-0.80;99.90
2497;DHT22;1259;48.306;14.374;2023-02-26T06:48:50;-0.90;99.90
2497;DHT22;1259;48.306;14.374;2023-02-26T06:51:18;-0.80;99.90
2497;DHT22;1259;48.306;14.374;2023-02-26T06:53:45;-0.80;99.90
2497;DHT22;1259;48.306;14.374;2023-02-26T06:56:12;-0.80;99.90
2497;DHT22;1259;48.306;14.374;2023-02-26T06:58:38;-0.70;99.90
2497;DHT22;1259;48.306;14.374;2023-02-26T07:01:05;-0.70;99.90
2497;DHT22;1259;48.306;14.374;2023-02-26T07:03:32;-0.70;99.90
2497;DHT22;1259;48.306;14.374;2023-02-26T07:05:58;-0.80;99.90
2497;DHT22;1259;48.306;14.374;2023-02-26T07:08:26;-0.70;99.90
2497;DHT22;1259;48.306;14.374;2023-02-26T07:10:53;-0.70;99.90
2497;DHT22;1259;48.306;14.374;2023-02-26T07:13:19;-0.60;99.90
2497;DHT22;1259;48.306;14.374;2023-02-26T07:15:46;-0.50;99.90
2497;DHT22;1259;48.306;14.374;2023-02-26T07:18:13;-0.50;99.90
2497;DHT22;1259;48.306;14.374;2023-02-26T07:20:40;-0.50;99.90
2497;DHT22;1259;48.306;14.374;2023-02-26T07:23:07;-0.40;99.90
2497;DHT22;1259;48.306;14.374;2023-02-26T07:25:35;-0.40;99.90
2497;DHT22;1259;48.306;14.374;2023-02-26T07:28:02;-0.40;99.90
2497;DHT22;1259;48.306;14.374;2023-02-26T07:30:29;-0.30;99.90
2497;DHT22;1259;48.306;14.374;2023-02-26T07:32:56;-0.20;99.90
2497;DHT22;1259;48.306;14.374;2023-02-26T07:35:23;-0.20;99.90
2497;DHT22;1259;48.306;14.374;2023-02-26T07:37:49;-0.20;99.90
2497;DHT22;1259;48.306;14.374;2023-02-26T07:40:17;-0.20;99.90
2497;DHT22;1259;48.306;14.374;2023-02-26T07:42:45;-0.20;99.90
2497;DHT22;1259;48.306;14.374;2023-02-26T07:45:12;-0.10;99.90
2497;DHT22;1259;48.306;14.374;2023-02-26T07:47:38;-0.20;99.90
2497;DHT22;1259;48.306;14.374;2023-02-26T07:50:05;-0.30;99.90
2497;DHT22;1259;48.306;14.374;2023-02-26T07:52:32;-0.20;99.90
2497;DHT22;1259;48.306;14.374;2023-02-26T07:54:59;-0.10;99.90
2497;DHT22;1259;48.306;14.374;2023-02-26T07:57:25;-0.20;99.90
2497;DHT22;1259;48.306;14.374;2023-02-26T07:59:54;-0.20;99.90
2497;DHT22;1259;48.306;14.374;2023-02-26T08:02:20;-0.10;99.90
2497;DHT22;1259;48.306;14.374;2023-02-26T08:04:47;0.00;99.90
2497;DHT22;1259;48.306;14.374;2023-02-26T08:07:14;0.00;99.90
2497;DHT22;1259;48.306;14.374;2023-02-26T08:09:41;0.10;99.90
2497;DHT22;1259;48.306;14.374;2023-02-26T08:12:07;0.20;99.90
2497;DHT22;1259;48.306;14.374;2023-02-26T08:14:34;0.00;99.90
2497;DHT22;1259;48.306;14.374;2023-02-26T08:17:02;0.00;99.90
2497;DHT22;1259;48.306;14.374;2023-02-26T08:19:29;0.00;99.90
2497;DHT22;1259;48.306;14.374;2023-02-26T08:21:56;0.10;99.90
2497;DHT22;1259;48.306;14.374;2023-02-26T08:24:23;0.10;99.90
2497;DHT22;1259;48.306;14.374;2023-02-26T08:26:50;0.00;99.90
2497;DHT22;1259;48.306;14.374;2023-02-26T08:29:16;0.00;99.90
2497;DHT22;1259;48.306;14.374;2023-02-26T08:31:43;0.00;99.90
2497;DHT22;1259;48.306;14.374;2023-02-26T08:34:11;0.00;99.90
2497;DHT22;1259;48.306;14.374;2023-02-26T08:36:38;0.10;99.90
2497;DHT22;1259;48.306;14.374;2023-02-26T08:39:05;0.20;99.90
2497;DHT22;1259;48.306;14.374;2023-02-26T08:41:32;0.30;99.90
2497;DHT22;1259;48.306;14.374;2023-02-26T08:44:00;0.30;99.90
2497;DHT22;1259;48.306;14.374;2023-02-26T08:46:27;0.30;99.90
2497;DHT22;1259;48.306;14.374;2023-02-26T08:48:54;0.30;99.90
2497;DHT22;1259;48.306;14.374;2023-02-26T08:51:22;0.30;99.90
2497;DHT22;1259;48.306;14.374;2023-02-26T08:53:48;0.30;99.90
2497;DHT22;1259;48.306;14.374;2023-02-26T08:56:15;0.40;99.90
2497;DHT22;1259;48.306;14.374;2023-02-26T08:58:42;0.40;99.90
2497;DHT22;1259;48.306;14.374;2023-02-26T09:01:09;0.40;99.90
2497;DHT22;1259;48.306;14.374;2023-02-26T09:03:35;0.40;99.90
2497;DHT22;1259;48.306;14.374;2023-02-26T09:06:02;0.50;99.90
2497;DHT22;1259;48.306;14.374;2023-02-26T09:08:31;0.50;99.90
2497;DHT22;1259;48.306;14.374;2023-02-26T09:10:58;0.60;99.90
2497;DHT22;1259;48.306;14.374;2023-02-26T09:13:25;0.60;99.90
2497;DHT22;1259;48.306;14.374;2023-02-26T09:15:52;0.70;99.90
2497;DHT22;1259;48.306;14.374;2023-02-26T09:18:18;0.80;99.90
2497;DHT22;1259;48.306;14.374;2023-02-26T09:20:45;0.70;99.90
2497;DHT22;1259;48.306;14.374;2023-02-26T09:23:12;0.60;99.90
2497;DHT22;1259;48.306;14.374;2023-02-26T09:25:40;0.70;99.90
2497;DHT22;1259;48.306;14.374;2023-02-26T09:28:06;0.70;99.90
2497;DHT22;1259;48.306;14.374;2023-02-26T09:30:33;0.70;99.90
2497;DHT22;1259;48.306;14.374;2023-02-26T09:33:00;0.60;99.90
2497;DHT22;1259;48.306;14.374;2023-02-26T09:35:26;0.40;99.90
2497;DHT22;1259;48.306;14.374;2023-02-26T09:37:53;0.30;99.90
2497;DHT22;1259;48.306;14.374;2023-02-26T09:40:22;0.60;99.90
2497;DHT22;1259;48.306;14.374;2023-02-26T09:43:05;0.70;99.90
2497;DHT22;1259;48.306;14.374;2023-02-26T09:45:33;0.70;99.90
2497;DHT22;1259;48.306;14.374;2023-02-26T09:48:02;0.80;99.90
2497;DHT22;1259;48.306;14.374;2023-02-26T09:50:31;0.70;99.90
2497;DHT22;1259;48.306;14.374;2023-02-26T09:53:04;0.70;99.90
2497;DHT22;1259;48.306;14.374;2023-02-26T09:55:34;0.70;99.90
2497;DHT22;1259;48.306;14.374;2023-02-26T09:58:05;0.70;99.90
2497;DHT22;1259;48.306;14.374;2023-02-26T10:00:37;0.70;99.90
2497;DHT22;1259;48.306;14.374;2023-02-26T10:03:18;0.80;99.90
2497;DHT22;1259;48.306;14.374;2023-02-26T10:05:52;0.90;99.90
2497;DHT22;1259;48.306;14.374;2023-02-26T10:08:20;0.80;99.90
2497;DHT22;1259;48.306;14.374;2023-02-26T10:10:50;0.80;99.90
2497;DHT22;1259;48.306;14.374;2023-02-26T10:13:22;0.90;99.90
2497;DHT22;1259;48.306;14.374;2023-02-26T10:15:51;0.70;99.90
2497;DHT22;1259;48.306;14.374;2023-02-26T10:18:20;0.40;99.90
2497;DHT22;1259;48.306;14.374;2023-02-26T10:20:54;0.50;99.90
2497;DHT22;1259;48.306;14.374;2023-02-26T10:23:22;0.60;99.90
2497;DHT22;1259;48.306;14.374;2023-02-26T10:25:52;0.70;99.90
2497;DHT22;1259;48.306;14.374;2023-02-26T10:28:27;1.00;99.90
2497;DHT22;1259;48.306;14.374;2023-02-26T10:30:57;0.80;99.90
2497;DHT22;1259;48.306;14.374;2023-02-26T10:33:29;0.60;99.90
2497;DHT22;1259;48.306;14.374;2023-02-26T10:36:00;0.70;99.90
2497;DHT22;1259;48.306;14.374;2023-02-26T10:38:29;1.00;99.90
2497;DHT22;1259;48.306;14.374;2023-02-26T10:40:57;0.70;99.90
2497;DHT22;1259;48.306;14.374;2023-02-26T10:43:28;0.90;99.90
2497;DHT22;1259;48.306;14.374;2023-02-26T10:46:00;1.00;99.90
2497;DHT22;1259;48.306;14.374;2023-02-26T10:48:34;1.10;99.90
2497;DHT22;1259;48.306;14.374;2023-02-26T10:51:08;1.10;99.90
2497;DHT22;1259;48.306;14.374;2023-02-26T10:53:37;0.70;99.90
2497;DHT22;1259;48.306;14.374;2023-02-26T10:56:04;1.00;99.90
2497;DHT22;1259;48.306;14.374;2023-02-26T10:58:34;1.10;99.90
2497;DHT22;1259;48.306;14.374;2023-02-26T11:01:01;1.10;99.90
2497;DHT22;1259;48.306;14.374;2023-02-26T11:03:29;0.80;99.90
2497;DHT22;1259;48.306;14.374;2023-02-26T11:05:57;1.00;99.90
2497;DHT22;1259;48.306;14.374;2023-02-26T11:08:24;0.70;99.90
2497;DHT22;1259;48.306;14.374;2023-02-26T11:10:52;0.70;99.90
2497;DHT22;1259;48.306;14.374;2023-02-26T11:13:20;0.60;99.90
2497;DHT22;1259;48.306;14.374;2023-02-26T11:15:49;0.60;99.90
2497;DHT22;1259;48.306;14.374;2023-02-26T11:18:18;0.50;99.90
2497;DHT22;1259;48.306;14.374;2023-02-26T11:20:45;0.60;99.90
2497;DHT22;1259;48.306;14.374;2023-02-26T11:23:13;0.80;99.90
2497;DHT22;1259;48.306;14.374;2023-02-26T11:25:42;0.90;99.90
2497;DHT22;1259;48.306;14.374;2023-02-26T11:28:18;1.00;99.90
2497;DHT22;1259;48.306;14.374;2023-02-26T11:30:45;0.90;99.90
2497;DHT22;1259;48.306;14.374;2023-02-26T11:33:17;0.70;99.90
2497;DHT22;1259;48.306;14.374;2023-02-26T11:35:44;0.80;99.90
2497;DHT22;1259;48.306;14.374;2023-02-26T11:38:13;0.90;99.90
2497;DHT22;1259;48.306;14.374;2023-02-26T11:40:41;0.90;99.90
2497;DHT22;1259;48.306;14.374;2023-02-26T11:43:11;0.80;99.90
2497;DHT22;1259;48.306;14.374;2023-02-26T11:45:40;0.70;99.90
2497;DHT22;1259;48.306;14.374;2023-02-26T11:48:09;0.60;99.90
2497;DHT22;1259;48.306;14.374;2023-02-26T11:50:43;0.80;99.90
2497;DHT22;1259;48.306;14.374;2023-02-26T11:53:15;0.70;99.90
2497;DHT22;1259;48.306;14.374;2023-02-26T11:55:43;0.80;99.90
2497;DHT22;1259;48.306;14.374;2023-02-26T11:58:16;0.90;99.90
2497;DHT22;1259;48.306;14.374;2023-02-26T12:00:43;1.00;99.90
2497;DHT22;1259;48.306;14.374;2023-02-26T12:03:14;1.00;99.90
2497;DHT22;1259;48.306;14.374;2023-02-26T12:05:42;0.90;99.90
2497;DHT22;1259;48.306;14.374;2023-02-26T12:08:13;1.20;99.90
2497;DHT22;1259;48.306;14.374;2023-02-26T12:10:42;1.20;99.90
2497;DHT22;1259;48.306;14.374;2023-02-26T12:13:14;0.90;99.90
2497;DHT22;1259;48.306;14.374;2023-02-26T12:15:46;0.70;99.90
2497;DHT22;1259;48.306;14.374;2023-02-26T12:18:20;0.70;99.90
2497;DHT22;1259;48.306;14.374;2023-02-26T12:20:55;0.80;99.90
2497;DHT22;1259;48.306;14.374;2023-02-26T12:23:29;0.90;99.90
2497;DHT22;1259;48.306;14.374;2023-02-26T12:25:59;0.90;99.90
2497;DHT22;1259;48.306;14.374;2023-02-26T12:28:40;0.90;99.90
2497;DHT22;1259;48.306;14.374;2023-02-26T12:31:25;1.00;99.90
2497;DHT22;1259;48.306;14.374;2023-02-26T12:33:57;1.10;99.90
2497;DHT22;1259;48.306;14.374;2023-02-26T12:36:30;1.00;99.90
2497;DHT22;1259;48.306;14.374;2023-02-26T12:39:04;1.00;99.90
2497;DHT22;1259;48.306;14.374;2023-02-26T12:41:40;1.20;99.90
2497;DHT22;1259;48.306;14.374;2023-02-26T12:44:13;0.80;99.90
2497;DHT22;1259;48.306;14.374;2023-02-26T12:46:46;0.50;99.90
2497;DHT22;1259;48.306;14.374;2023-02-26T12:52:05;0.60;99.90
2497;DHT22;1259;48.306;14.374;2023-02-26T12:54:41;0.70;99.90
2497;DHT22;1259;48.306;14.374;2023-02-26T12:57:15;0.60;99.90
2497;DHT22;1259;48.306;14.374;2023-02-26T13:05:26;0.60;99.90
2497;DHT22;1259;48.306;14.374;2023-02-26T13:08:02;0.70;99.90
2497;DHT22;1259;48.306;14.374;2023-02-26T13:10:34;0.80;99.90
2497;DHT22;1259;48.306;14.374;2023-02-26T13:13:06;0.80;99.90
2497;DHT22;1259;48.306;14.374;2023-02-26T13:15:38;0.90;99.90
2497;DHT22;1259;48.306;14.374;2023-02-26T13:18:10;0.90;99.90
2497;DHT22;1259;48.306;14.374;2023-02-26T13:20:51;1.00;99.90
2497;DHT22;1259;48.306;14.374;2023-02-26T13:23:22;0.90;99.90
2497;DHT22;1259;48.306;14.374;2023-02-26T13:25:52;0.90;99.90
2497;DHT22;1259;48.306;14.374;2023-02-26T13:28:22;0.90;99.90
2497;DHT22;1259;48.306;14.374;2023-02-26T13:30:52;0.90;99.90
2497;DHT22;1259;48.306;14.374;2023-02-26T13:33:19;1.10;99.90
2497;DHT22;1259;48.306;14.374;2023-02-26T13:35:47;1.20;99.90
2497;DHT22;1259;48.306;14.374;2023-02-26T13:38:25;1.10;99.90
2497;DHT22;1259;48.306;14.374;2023-02-26T13:40:59;1.20;99.90
2497;DHT22;1259;48.306;14.374;2023-02-26T13:43:37;0.70;99.90
2497;DHT22;1259;48.306;14.374;2023-02-26T13:46:15;0.40;99.90
2497;DHT22;1259;48.306;14.374;2023-02-26T13:48:44;0.20;99.90
2497;DHT22;1259;48.306;14.374;2023-02-26T13:51:14;0.10;99.90
2497;DHT22;1259;48.306;14.374;2023-02-26T13:53:51;0.20;99.90
2497;DHT22;1259;48.306;14.374;2023-02-26T13:56:21;0.10;99.90
2497;DHT22;1259;48.306;14.374;2023-02-26T13:58:51;0.10;99.90
2497;DHT22;1259;48.306;14.374;2023-02-26T14:01:18;0.10;99.90
2497;DHT22;1259;48.306;14.374;2023-02-26T14:03:47;0.20;99.90
2497;DHT22;1259;48.306;14.374;2023-02-26T14:06:23;0.10;99.90
2497;DHT22;1259;48.306;14.374;2023-02-26T14:08:51;0.20;99.90
2497;DHT22;1259;48.306;14.374;2023-02-26T14:14:12;0.30;99.90
2497;DHT22;1259;48.306;14.374;2023-02-26T14:16:39;0.30;99.90
2497;DHT22;1259;48.306;14.374;2023-02-26T14:19:19;0.20;99.90
2497;DHT22;1259;48.306;14.374;2023-02-26T14:21:47;0.10;99.90
2497;DHT22;1259;48.306;14.374;2023-02-26T14:24:15;0.10;99.90
2497;DHT22;1259;48.306;14.374;2023-02-26T14:26:43;0.00;99.90
2497;DHT22;1259;48.306;14.374;2023-02-26T14:29:14;0.00;99.90
2497;DHT22;1259;48.306;14.374;2023-02-26T14:34:25;0.10;99.90
2497;DHT22;1259;48.306;14.374;2023-02-26T14:36:56;0.10;99.90
2497;DHT22;1259;48.306;14.374;2023-02-26T14:39:24;0.10;99.90
2497;DHT22;1259;48.306;14.374;2023-02-26T14:41:54;0.20;99.90
2497;DHT22;1259;48.306;14.374;2023-02-26T14:44:24;0.20;99.90
2497;DHT22;1259;48.306;14.374;2023-02-26T14:46:52;0.10;99.90
2497;DHT22;1259;48.306;14.374;2023-02-26T14:49:21;0.00;99.90
2497;DHT22;1259;48.306;14.374;2023-02-26T14:51:53;0.10;99.90
2497;DHT22;1259;48.306;14.374;2023-02-26T14:54:30;0.10;99.90
2497;DHT22;1259;48.306;14.374;2023-02-26T14:57:01;0.10;99.90
2497;DHT22;1259;48.306;14.374;2023-02-26T14:59:36;0.20;99.90
2497;DHT22;1259;48.306;14.374;2023-02-26T15:02:11;0.20;99.90
2497;DHT22;1259;48.306;14.374;2023-02-26T15:04:49;0.20;99.90
2497;DHT22;1259;48.306;14.374;2023-02-26T15:07:28;0.20;99.90
2497;DHT22;1259;48.306;14.374;2023-02-26T15:10:08;0.10;99.90
2497;DHT22;1259;48.306;14.374;2023-02-26T15:12:40;0.10;99.90
2497;DHT22;1259;48.306;14.374;2023-02-26T15:15:17;0.10;99.90
2497;DHT22;1259;48.306;14.374;2023-02-26T15:17:51;0.00;99.90
2497;DHT22;1259;48.306;14.374;2023-02-26T15:20:25;-0.10;99.90
2497;DHT22;1259;48.306;14.374;2023-02-26T15:22:57;-0.20;99.90
2497;DHT22;1259;48.306;14.374;2023-02-26T15:25:27;-0.20;99.90
2497;DHT22;1259;48.306;14.374;2023-02-26T15:27:55;-0.20;99.90
2497;DHT22;1259;48.306;14.374;2023-02-26T15:30:23;-0.20;99.90
2497;DHT22;1259;48.306;14.374;2023-02-26T15:32:54;-0.20;99.90
2497;DHT22;1259;48.306;14.374;2023-02-26T15:35:22;-0.20;99.90
2497;DHT22;1259;48.306;14.374;2023-02-26T15:37:49;-0.20;99.90
2497;DHT22;1259;48.306;14.374;2023-02-26T15:40:16;-0.30;99.90
2497;DHT22;1259;48.306;14.374;2023-02-26T15:42:43;-0.30;99.90
2497;DHT22;1259;48.306;14.374;2023-02-26T15:45:12;-0.30;99.90
2497;DHT22;1259;48.306;14.374;2023-02-26T15:47:41;-0.30;99.90
2497;DHT22;1259;48.306;14.374;2023-02-26T15:50:08;-0.30;99.90
2497;DHT22;1259;48.306;14.374;2023-02-26T15:52:38;-0.30;99.90
2497;DHT22;1259;48.306;14.374;2023-02-26T15:55:06;-0.30;99.90
2497;DHT22;1259;48.306;14.374;2023-02-26T15:57:33;-0.30;99.90
2497;DHT22;1259;48.306;14.374;2023-02-26T16:00:03;-0.30;99.90
2497;DHT22;1259;48.306;14.374;2023-02-26T16:02:32;-0.30;99.90
2497;DHT22;1259;48.306;14.374;2023-02-26T16:05:01;-0.40;99.90
2497;DHT22;1259;48.306;14.374;2023-02-26T16:07:29;-0.40;99.90
2497;DHT22;1259;48.306;14.374;2023-02-26T16:09:56;-0.40;99.90
2497;DHT22;1259;48.306;14.374;2023-02-26T16:12:31;-0.40;99.90
2497;DHT22;1259;48.306;14.374;2023-02-26T16:15:00;-0.50;99.90
2497;DHT22;1259;48.306;14.374;2023-02-26T16:17:27;-0.50;99.90
2497;DHT22;1259;48.306;14.374;2023-02-26T16:19:56;-0.50;99.90